X  Zamknij Lotniskowe dane METAR        LELL Aeropuerto de Barcelona Josep Tarradellas
Temperatura
22°C Temperatura
14°C Punkt rosy
60% Wilgotność



Wiatr
20 KM/H
13 MPH
6 M/S
11 KTS



120°
ESE
Warunki bieżące

Mostly Sunny Przeważnie słonecznie
Ciśnienie 1018 (hPa) - 30.06 (inHg)
Widoczność 6 (mil) - 10 (km)
Lotnisko
Kod lotniska LELL

Położenie: Aeropuerto de Barcelona Josep Tarradellas
Odległość: 20 (km)

Metar:
METAR LELL 281100Z 12011KT 080V160 9999 FEW030 22/14 Q1019

Czas: 28-05-2024 13:00 CEST